Time;durP1;ratioP1;P1;durP2;ratioP2;P2;SDS_P1;SDS_P2;PMS_P1;PMS_P2;Temp;Humidity;BMP_temperature;BMP_pressure;BME280_temperature;BME280_humidity;BME280_pressure;Samples;Min_cycle;Max_cycle;Signal;HPM_P1;HPM_P2
2022/12/04 00:01:29;;;;;;;;;;;0.80;99.90;;;;;;5029380;28;19913;-66
2022/12/04 00:03:57;;;;;;;;;;;0.70;99.90;;;;;;5030752;28;19962;-65
2022/12/04 00:06:23;;;;;;;;;;;0.80;99.90;;;;;;5030453;28;19913;-66
2022/12/04 00:08:49;;;;;;;;;;;0.80;99.90;;;;;;5030486;28;19916;-66
2022/12/04 00:11:16;;;;;;;;;;;0.80;99.90;;;;;;5030384;28;19913;-66
2022/12/04 00:13:41;;;;;;;;;;;0.80;99.90;;;;;;5030672;28;19916;-66
2022/12/04 00:16:10;;;;;;;;;;;0.80;99.90;;;;;;5030621;28;19995;-66
2022/12/04 00:18:35;;;;;;;;;;;0.80;99.90;;;;;;5030601;28;20342;-66
2022/12/04 00:21:05;;;;;;;;;;;0.80;99.90;;;;;;5030619;28;19909;-66
2022/12/04 00:23:31;;;;;;;;;;;0.80;99.90;;;;;;5030267;28;19909;-66
2022/12/04 00:26:00;;;;;;;;;;;0.80;99.90;;;;;;5030422;28;20263;-66
2022/12/04 00:28:26;;;;;;;;;;;0.80;99.90;;;;;;5030467;28;20330;-66
2022/12/04 00:30:51;;;;;;;;;;;0.90;99.90;;;;;;5030293;28;19988;-66
2022/12/04 00:33:16;;;;;;;;;;;0.80;99.90;;;;;;5030423;28;19909;-66
2022/12/04 00:35:42;;;;;;;;;;;0.90;99.90;;;;;;5030095;28;20355;-66
2022/12/04 00:38:07;;;;;;;;;;;0.90;99.90;;;;;;5030107;28;19909;-66
2022/12/04 00:40:33;;;;;;;;;;;0.90;99.90;;;;;;5030144;28;19916;-66
2022/12/04 00:42:58;;;;;;;;;;;0.90;99.90;;;;;;5030325;28;19948;-66
2022/12/04 00:45:24;;;;;;;;;;;0.90;99.90;;;;;;5030090;28;19916;-65
2022/12/04 00:47:49;;;;;;;;;;;0.90;99.90;;;;;;5029817;28;20316;-66
2022/12/04 00:50:15;;;;;;;;;;;0.90;99.90;;;;;;5030161;28;19924;-66
2022/12/04 00:52:40;;;;;;;;;;;0.90;99.90;;;;;;5030144;28;20405;-66
2022/12/04 00:55:06;;;;;;;;;;;1.00;99.90;;;;;;5032725;28;20005;-66
2022/12/04 00:57:31;;;;;;;;;;;1.00;99.90;;;;;;5033188;28;20016;-66
2022/12/04 00:59:57;;;;;;;;;;;0.90;99.90;;;;;;5033177;28;19910;-66
2022/12/04 01:02:22;;;;;;;;;;;0.90;99.90;;;;;;5033396;28;19909;-66
2022/12/04 01:04:48;;;;;;;;;;;0.90;99.90;;;;;;5033184;28;20047;-66
2022/12/04 01:07:13;;;;;;;;;;;0.90;99.90;;;;;;5033033;28;19913;-66
2022/12/04 01:09:39;;;;;;;;;;;0.90;99.90;;;;;;5033355;28;19956;-66
2022/12/04 01:12:04;;;;;;;;;;;0.90;99.90;;;;;;5033091;28;19913;-66
2022/12/04 01:14:30;;;;;;;;;;;0.90;99.90;;;;;;5032966;28;20406;-66
2022/12/04 01:16:55;;;;;;;;;;;0.90;99.90;;;;;;5033222;28;20355;-66
2022/12/04 01:19:21;;;;;;;;;;;0.90;99.90;;;;;;5031762;28;19952;-66
2022/12/04 01:21:46;;;;;;;;;;;1.00;99.90;;;;;;5031646;28;19913;-66
2022/12/04 01:24:12;;;;;;;;;;;0.90;99.90;;;;;;5032834;28;19909;-65
2022/12/04 01:26:37;;;;;;;;;;;0.90;99.90;;;;;;5032738;28;20026;-66
2022/12/04 01:29:03;;;;;;;;;;;0.90;99.90;;;;;;5033075;28;19913;-66
2022/12/04 01:31:28;;;;;;;;;;;0.90;99.90;;;;;;5032998;28;19916;-66
2022/12/04 01:33:54;;;;;;;;;;;0.90;99.90;;;;;;5032779;28;19913;-66
2022/12/04 01:36:21;;;;;;;;;;;0.90;99.90;;;;;;5032922;28;19916;-67
2022/12/04 01:38:46;;;;;;;;;;;1.00;99.90;;;;;;5032917;28;19967;-66
2022/12/04 01:41:13;;;;;;;;;;;1.00;99.90;;;;;;5032902;28;19970;-66
2022/12/04 01:43:39;;;;;;;;;;;0.90;99.90;;;;;;5032623;28;19954;-66
2022/12/04 01:46:05;;;;;;;;;;;1.00;99.90;;;;;;5032469;28;20004;-64
2022/12/04 01:48:32;;;;;;;;;;;1.00;99.90;;;;;;5032769;28;19916;-64
2022/12/04 01:51:02;;;;;;;;;;;1.00;99.90;;;;;;5032432;28;19953;-64
2022/12/04 01:53:28;;;;;;;;;;;1.00;99.90;;;;;;5032684;28;20016;-63
2022/12/04 01:55:54;;;;;;;;;;;0.90;99.90;;;;;;5032660;28;20366;-67
2022/12/04 01:58:22;;;;;;;;;;;0.90;99.90;;;;;;5032426;28;19909;-66
2022/12/04 02:00:50;;;;;;;;;;;1.00;99.90;;;;;;5032587;28;19909;-66
2022/12/04 02:03:16;;;;;;;;;;;1.00;99.90;;;;;;5032239;28;20401;-66
2022/12/04 02:05:42;;;;;;;;;;;1.00;99.90;;;;;;5032460;28;19952;-66
2022/12/04 02:08:09;;;;;;;;;;;1.00;99.90;;;;;;5032147;28;19914;-66
2022/12/04 02:10:41;;;;;;;;;;;0.90;99.90;;;;;;5032400;28;19916;-66
2022/12/04 02:13:13;;;;;;;;;;;1.00;99.90;;;;;;5032169;28;19909;-65
2022/12/04 02:15:47;;;;;;;;;;;1.00;99.90;;;;;;5032328;28;20008;-66
2022/12/04 02:18:20;;;;;;;;;;;0.90;99.90;;;;;;5032019;28;19938;-66
2022/12/04 02:20:50;;;;;;;;;;;1.00;99.90;;;;;;5031970;28;19973;-66
2022/12/04 02:23:23;;;;;;;;;;;1.00;99.90;;;;;;5031960;28;19921;-66
2022/12/04 02:25:53;;;;;;;;;;;1.00;99.90;;;;;;5032163;28;19917;-65
2022/12/04 02:28:22;;;;;;;;;;;1.00;99.90;;;;;;5031854;28;19965;-66
2022/12/04 02:30:49;;;;;;;;;;;1.00;99.90;;;;;;5032174;28;19988;-66
2022/12/04 02:33:18;;;;;;;;;;;1.00;99.90;;;;;;5031827;28;19913;-66
2022/12/04 02:35:46;;;;;;;;;;;1.00;99.90;;;;;;5032013;28;19916;-65
2022/12/04 02:38:16;;;;;;;;;;;1.00;99.90;;;;;;5031678;28;19924;-66
2022/12/04 02:40:49;;;;;;;;;;;1.00;99.90;;;;;;5031495;28;19913;-66
2022/12/04 02:43:17;;;;;;;;;;;1.00;99.90;;;;;;5031554;28;19924;-66
2022/12/04 02:45:45;;;;;;;;;;;0.90;99.90;;;;;;5031241;28;19910;-66
2022/12/04 02:48:14;;;;;;;;;;;0.90;99.90;;;;;;5031148;28;20003;-66
2022/12/04 02:50:40;;;;;;;;;;;0.90;99.90;;;;;;5031335;28;19916;-66
2022/12/04 02:53:08;;;;;;;;;;;0.90;99.90;;;;;;5031616;28;19971;-65
2022/12/04 02:55:36;;;;;;;;;;;0.90;99.90;;;;;;5031722;28;20009;-66
2022/12/04 02:58:05;;;;;;;;;;;0.90;99.90;;;;;;5031357;28;19909;-66
2022/12/04 03:00:31;;;;;;;;;;;0.90;99.90;;;;;;5031414;28;19909;-66
2022/12/04 03:03:00;;;;;;;;;;;0.90;99.90;;;;;;5031625;28;19974;-66
2022/12/04 03:05:38;;;;;;;;;;;1.00;99.90;;;;;;5031590;28;19961;-66
2022/12/04 03:08:07;;;;;;;;;;;0.90;99.90;;;;;;5031235;28;19963;-66
2022/12/04 03:10:35;;;;;;;;;;;1.00;99.90;;;;;;5030038;28;20393;-66
2022/12/04 03:13:04;;;;;;;;;;;1.00;99.90;;;;;;5031223;28;20282;-66
2022/12/04 03:15:31;;;;;;;;;;;0.90;99.90;;;;;;5031453;28;20401;-66
2022/12/04 03:18:05;;;;;;;;;;;0.90;99.90;;;;;;5030908;28;20415;-66
2022/12/04 03:20:31;;;;;;;;;;;0.90;99.90;;;;;;5031145;28;19916;-66
2022/12/04 03:22:59;;;;;;;;;;;1.00;99.90;;;;;;5031058;28;19967;-66
2022/12/04 03:25:27;;;;;;;;;;;0.90;99.90;;;;;;5031065;28;19913;-66
2022/12/04 03:27:58;;;;;;;;;;;1.00;99.90;;;;;;5030903;28;19913;-66
2022/12/04 03:30:24;;;;;;;;;;;1.00;99.90;;;;;;5029852;28;19952;-66
2022/12/04 03:32:57;;;;;;;;;;;1.00;99.90;;;;;;5031297;28;19960;-66
2022/12/04 03:35:25;;;;;;;;;;;0.90;99.90;;;;;;5031199;28;19932;-66
2022/12/04 03:37:55;;;;;;;;;;;1.00;99.90;;;;;;5030886;28;19948;-66
2022/12/04 03:40:22;;;;;;;;;;;1.00;99.90;;;;;;5030857;28;20286;-66
2022/12/04 03:42:52;;;;;;;;;;;1.00;99.90;;;;;;5029582;28;20255;-66
2022/12/04 03:45:21;;;;;;;;;;;1.00;99.90;;;;;;5030739;28;19952;-66
2022/12/04 03:48:06;;;;;;;;;;;1.00;99.90;;;;;;5030427;28;19960;-66
2022/12/04 03:50:35;;;;;;;;;;;1.00;99.90;;;;;;5030701;28;19958;-66
2022/12/04 03:53:08;;;;;;;;;;;1.00;99.90;;;;;;5030908;28;19955;-66
2022/12/04 03:55:39;;;;;;;;;;;1.00;99.90;;;;;;5030664;28;19966;-65
2022/12/04 03:58:08;;;;;;;;;;;1.00;99.90;;;;;;5030856;28;19909;-66
2022/12/04 04:00:36;;;;;;;;;;;1.00;99.90;;;;;;5030820;28;19909;-66
2022/12/04 04:03:08;;;;;;;;;;;0.90;99.90;;;;;;5030658;28;19915;-66
2022/12/04 04:05:34;;;;;;;;;;;1.00;99.90;;;;;;5030561;28;19909;-66
2022/12/04 04:08:33;;;;;;;;;;;1.00;99.90;;;;;;5030437;28;20370;-65
2022/12/04 04:10:48;;;;;;;;;;;1.00;99.90;;;;;;5030354;28;19962;-66
2022/12/04 04:24:43;;;;;;;;;;;1.00;99.90;;;;;;5030209;28;20271;-66
2022/12/04 04:27:08;;;;;;;;;;;1.00;99.90;;;;;;5030124;28;19913;-65
2022/12/04 04:29:34;;;;;;;;;;;1.00;99.90;;;;;;5032169;28;19909;-65
2022/12/04 04:32:05;;;;;;;;;;;1.00;99.90;;;;;;5033921;28;19909;-66
2022/12/04 04:34:37;;;;;;;;;;;1.00;99.90;;;;;;5033692;28;19944;-66
2022/12/04 04:37:22;;;;;;;;;;;1.00;99.90;;;;;;5033893;28;20438;-66
2022/12/04 04:39:55;;;;;;;;;;;0.90;99.90;;;;;;5033442;28;20378;-66
2022/12/04 04:42:25;;;;;;;;;;;0.90;99.90;;;;;;5033561;28;19916;-66
2022/12/04 04:44:55;;;;;;;;;;;1.00;99.90;;;;;;5033749;28;19909;-66
2022/12/04 04:47:26;;;;;;;;;;;1.00;99.90;;;;;;5033260;28;20306;-66
2022/12/04 04:49:52;;;;;;;;;;;1.00;99.90;;;;;;5033493;28;20022;-66
2022/12/04 04:52:19;;;;;;;;;;;1.00;99.90;;;;;;5033644;28;19975;-66
2022/12/04 04:54:45;;;;;;;;;;;1.00;99.90;;;;;;5033653;28;19909;-66
2022/12/04 04:57:10;;;;;;;;;;;1.00;99.90;;;;;;5033617;28;19910;-65
2022/12/04 04:59:36;;;;;;;;;;;1.00;99.90;;;;;;5033230;28;19917;-66
2022/12/04 05:02:01;;;;;;;;;;;1.00;99.90;;;;;;5033251;28;19916;-66
2022/12/04 05:04:27;;;;;;;;;;;1.00;99.90;;;;;;5033201;28;19916;-66
2022/12/04 05:06:52;;;;;;;;;;;1.00;99.90;;;;;;5033107;28;19920;-65
2022/12/04 05:09:18;;;;;;;;;;;1.00;99.90;;;;;;5033106;28;19932;-65
2022/12/04 05:11:43;;;;;;;;;;;1.10;99.90;;;;;;5033053;28;19909;-66
2022/12/04 05:14:09;;;;;;;;;;;1.00;99.90;;;;;;5033316;27;19920;-66
2022/12/04 05:16:34;;;;;;;;;;;1.00;99.90;;;;;;5033267;28;19909;-66
2022/12/04 05:21:45;;;;;;;;;;;1.10;99.90;;;;;;5032834;28;19913;-66
2022/12/04 05:24:10;;;;;;;;;;;1.10;99.90;;;;;;5033154;28;19909;-66
2022/12/04 05:26:36;;;;;;;;;;;1.10;99.90;;;;;;5032824;28;19913;-66
2022/12/04 05:29:01;;;;;;;;;;;1.10;99.90;;;;;;5032866;28;19955;-66
2022/12/04 05:31:27;;;;;;;;;;;1.00;99.90;;;;;;5032803;28;19957;-66
2022/12/04 05:33:52;;;;;;;;;;;1.00;99.90;;;;;;5032776;28;19916;-66
2022/12/04 05:36:18;;;;;;;;;;;1.10;99.90;;;;;;5032972;28;19916;-65
2022/12/04 05:38:43;;;;;;;;;;;1.10;99.90;;;;;;5032674;28;19916;-66
2022/12/04 05:41:08;;;;;;;;;;;1.10;99.90;;;;;;5032317;27;19995;-66
2022/12/04 05:43:34;;;;;;;;;;;1.10;99.90;;;;;;5032642;28;19943;-66
2022/12/04 05:46:00;;;;;;;;;;;1.10;99.90;;;;;;5032287;28;19909;-66
2022/12/04 05:48:26;;;;;;;;;;;1.10;99.90;;;;;;5032803;28;19920;-66
2022/12/04 05:50:51;;;;;;;;;;;1.10;99.90;;;;;;5033088;28;19909;-66
2022/12/04 05:53:17;;;;;;;;;;;1.10;99.90;;;;;;5032698;28;19913;-66
2022/12/04 05:55:42;;;;;;;;;;;1.10;99.90;;;;;;5032483;28;19910;-66
2022/12/04 05:58:08;;;;;;;;;;;1.10;99.90;;;;;;5032403;28;19916;-67
2022/12/04 06:00:33;;;;;;;;;;;1.10;99.90;;;;;;5032448;28;20293;-66
2022/12/04 06:02:59;;;;;;;;;;;1.10;99.90;;;;;;5032550;28;19909;-65
2022/12/04 06:05:24;;;;;;;;;;;1.10;99.90;;;;;;5032286;28;19967;-66
2022/12/04 06:07:49;;;;;;;;;;;1.10;99.90;;;;;;5032431;28;19913;-66
2022/12/04 06:10:15;;;;;;;;;;;1.20;99.90;;;;;;5032204;28;19913;-66
2022/12/04 06:12:40;;;;;;;;;;;1.20;99.90;;;;;;5032174;28;19909;-66
2022/12/04 06:15:06;;;;;;;;;;;1.20;99.90;;;;;;5032392;28;19985;-66
2022/12/04 06:17:31;;;;;;;;;;;1.20;99.90;;;;;;5032357;28;19913;-66
2022/12/04 06:19:57;;;;;;;;;;;1.20;99.90;;;;;;5032343;28;19910;-65
2022/12/04 06:22:22;;;;;;;;;;;1.20;99.90;;;;;;5032082;28;19962;-66
2022/12/04 06:24:48;;;;;;;;;;;1.20;99.90;;;;;;5032245;28;19916;-66
2022/12/04 06:27:13;;;;;;;;;;;1.20;99.90;;;;;;5032137;28;20385;-66
2022/12/04 06:29:39;;;;;;;;;;;1.20;99.90;;;;;;5032151;28;19946;-65
2022/12/04 06:32:04;;;;;;;;;;;1.20;99.90;;;;;;5032150;28;19910;-66
2022/12/04 06:34:30;;;;;;;;;;;1.20;99.90;;;;;;5031797;28;20386;-65
2022/12/04 06:36:55;;;;;;;;;;;1.20;99.90;;;;;;5031797;28;19919;-66
2022/12/04 06:39:21;;;;;;;;;;;1.20;99.90;;;;;;5031745;28;19910;-66
2022/12/04 06:41:46;;;;;;;;;;;1.20;99.90;;;;;;5031665;28;19931;-66
2022/12/04 06:44:12;;;;;;;;;;;1.30;99.90;;;;;;5031723;28;19909;-67
2022/12/04 06:46:38;;;;;;;;;;;1.20;99.90;;;;;;5031377;28;19927;-66
2022/12/04 06:49:03;;;;;;;;;;;1.30;99.90;;;;;;5031861;28;19909;-66
2022/12/04 06:51:30;;;;;;;;;;;1.30;99.90;;;;;;5030827;28;20422;-66
2022/12/04 06:53:56;;;;;;;;;;;1.30;99.90;;;;;;5031825;28;19936;-66
2022/12/04 06:56:23;;;;;;;;;;;1.30;99.90;;;;;;5031734;28;19909;-66
2022/12/04 06:58:50;;;;;;;;;;;1.30;99.90;;;;;;5031479;28;19939;-66
2022/12/04 07:01:17;;;;;;;;;;;1.30;99.90;;;;;;5031420;28;19921;-64
2022/12/04 07:03:43;;;;;;;;;;;1.30;99.90;;;;;;5031360;28;20051;-66
2022/12/04 07:06:09;;;;;;;;;;;1.40;99.90;;;;;;5030085;28;19952;-65
2022/12/04 07:08:35;;;;;;;;;;;1.30;99.90;;;;;;5031540;28;20339;-66
2022/12/04 07:11:01;;;;;;;;;;;1.30;99.90;;;;;;5031536;28;20001;-65
2022/12/04 07:13:26;;;;;;;;;;;1.40;99.90;;;;;;5031508;28;20366;-66
2022/12/04 07:15:51;;;;;;;;;;;1.30;99.90;;;;;;5031172;28;19910;-66
2022/12/04 07:18:17;;;;;;;;;;;1.40;99.90;;;;;;5031176;28;19913;-66
2022/12/04 07:20:42;;;;;;;;;;;1.40;99.90;;;;;;5031126;28;20391;-66
2022/12/04 07:23:08;;;;;;;;;;;1.40;99.90;;;;;;5031073;28;20317;-66
2022/12/04 07:25:37;;;;;;;;;;;1.40;99.90;;;;;;5031064;28;19909;-66
2022/12/04 07:28:02;;;;;;;;;;;1.40;99.90;;;;;;5031210;28;20362;-66
2022/12/04 07:30:28;;;;;;;;;;;1.50;99.90;;;;;;5031039;28;19958;-66
2022/12/04 07:32:53;;;;;;;;;;;1.50;99.90;;;;;;5030997;28;19909;-66
2022/12/04 07:35:19;;;;;;;;;;;1.50;99.90;;;;;;5029705;28;19909;-66
2022/12/04 07:37:44;;;;;;;;;;;1.50;99.90;;;;;;5030898;28;19909;-66
2022/12/04 07:40:10;;;;;;;;;;;1.50;99.90;;;;;;5030860;28;19909;-66
2022/12/04 07:42:35;;;;;;;;;;;1.50;99.90;;;;;;5030795;28;19913;-66
2022/12/04 07:45:01;;;;;;;;;;;1.50;99.90;;;;;;5030828;28;19909;-66
2022/12/04 07:47:26;;;;;;;;;;;1.60;99.90;;;;;;5030621;28;20012;-66
2022/12/04 07:49:52;;;;;;;;;;;1.50;99.90;;;;;;5030758;28;20008;-66
2022/12/04 07:52:17;;;;;;;;;;;1.60;99.90;;;;;;5030736;28;19966;-66
2022/12/04 07:54:43;;;;;;;;;;;1.60;99.90;;;;;;5030968;28;19910;-66
2022/12/04 07:57:08;;;;;;;;;;;1.60;99.90;;;;;;5030932;28;19944;-65
2022/12/04 07:59:34;;;;;;;;;;;1.60;99.90;;;;;;5030644;28;20409;-66
2022/12/04 08:01:59;;;;;;;;;;;1.70;99.90;;;;;;5030628;28;19909;-66
2022/12/04 08:04:25;;;;;;;;;;;1.70;99.90;;;;;;5032724;28;19966;-67
2022/12/04 08:06:50;;;;;;;;;;;1.70;99.90;;;;;;5032851;28;20294;-66
2022/12/04 08:09:15;;;;;;;;;;;1.70;99.90;;;;;;5034011;28;20000;-66
2022/12/04 08:11:41;;;;;;;;;;;1.70;99.90;;;;;;5033998;28;19913;-66
2022/12/04 08:14:07;;;;;;;;;;;1.70;99.90;;;;;;5034268;28;19909;-66
2022/12/04 08:16:33;;;;;;;;;;;1.70;99.90;;;;;;5034272;28;20252;-66
2022/12/04 08:18:59;;;;;;;;;;;1.70;99.90;;;;;;5034168;28;19916;-66
2022/12/04 08:21:26;;;;;;;;;;;1.70;99.90;;;;;;5033892;28;20393;-66
2022/12/04 08:23:52;;;;;;;;;;;1.70;99.90;;;;;;5034164;28;20268;-66
2022/12/04 08:26:19;;;;;;;;;;;1.80;99.90;;;;;;5033705;28;19909;-66
2022/12/04 08:28:44;;;;;;;;;;;1.70;99.90;;;;;;5034022;28;19915;-66
2022/12/04 08:31:11;;;;;;;;;;;1.80;99.90;;;;;;5033986;28;20016;-66
2022/12/04 08:33:37;;;;;;;;;;;1.80;99.90;;;;;;5033672;28;19910;-66
2022/12/04 08:36:06;;;;;;;;;;;1.80;99.90;;;;;;5033942;28;19916;-66
2022/12/04 08:38:31;;;;;;;;;;;1.90;99.90;;;;;;5033906;28;20390;-67
2022/12/04 08:40:59;;;;;;;;;;;1.90;99.90;;;;;;5033665;28;19910;-66
2022/12/04 08:43:25;;;;;;;;;;;1.90;99.90;;;;;;5033805;28;19909;-66
2022/12/04 08:45:59;;;;;;;;;;;1.90;99.90;;;;;;5033332;28;20004;-65
2022/12/04 08:48:25;;;;;;;;;;;1.90;99.90;;;;;;5033655;28;20402;-66
2022/12/04 08:50:50;;;;;;;;;;;1.90;99.90;;;;;;5033432;28;19909;-66
2022/12/04 08:53:16;;;;;;;;;;;1.90;99.90;;;;;;5033393;28;19916;-66
2022/12/04 08:55:42;;;;;;;;;;;2.00;99.90;;;;;;5033651;28;19913;-66
2022/12/04 08:58:07;;;;;;;;;;;2.00;99.90;;;;;;5033603;28;19909;-66
2022/12/04 09:00:32;;;;;;;;;;;2.00;99.90;;;;;;5033564;28;19996;-66
2022/12/04 09:02:58;;;;;;;;;;;2.00;99.90;;;;;;5033531;28;19910;-66
2022/12/04 09:05:23;;;;;;;;;;;2.00;99.90;;;;;;5033200;28;19909;-66
2022/12/04 09:07:49;;;;;;;;;;;2.00;99.90;;;;;;5033354;28;19975;-66
2022/12/04 09:10:14;;;;;;;;;;;2.10;99.90;;;;;;5033196;28;20347;-66
2022/12/04 09:12:40;;;;;;;;;;;2.10;99.90;;;;;;5033310;28;19917;-64
2022/12/04 09:15:06;;;;;;;;;;;2.10;99.90;;;;;;5032624;28;19920;-64
2022/12/04 09:17:33;;;;;;;;;;;2.10;99.90;;;;;;5033022;28;19956;-64
2022/12/04 09:19:58;;;;;;;;;;;2.10;99.90;;;;;;5033270;28;19932;-66
2022/12/04 09:22:24;;;;;;;;;;;2.20;99.90;;;;;;5033195;28;20359;-66
2022/12/04 09:24:49;;;;;;;;;;;2.10;99.90;;;;;;5032914;28;20000;-66
2022/12/04 09:27:15;;;;;;;;;;;2.10;99.90;;;;;;5031644;28;19920;-66
2022/12/04 09:29:41;;;;;;;;;;;2.20;99.90;;;;;;5033133;28;20389;-66
2022/12/04 09:32:06;;;;;;;;;;;2.10;99.90;;;;;;5033065;28;19909;-66
2022/12/04 09:34:32;;;;;;;;;;;2.20;99.90;;;;;;5032804;28;19909;-66
2022/12/04 09:36:57;;;;;;;;;;;2.20;99.90;;;;;;5033024;28;19916;-66
2022/12/04 09:39:23;;;;;;;;;;;2.20;99.90;;;;;;5032980;28;19952;-64
2022/12/04 09:41:57;;;;;;;;;;;2.20;99.90;;;;;;5032655;28;19909;-64
2022/12/04 09:44:26;;;;;;;;;;;2.20;99.90;;;;;;5032625;28;19917;-64
2022/12/04 09:46:56;;;;;;;;;;;2.20;99.90;;;;;;5032324;28;19972;-64
2022/12/04 09:49:26;;;;;;;;;;;2.20;99.90;;;;;;5032574;28;19910;-64
2022/12/04 09:51:54;;;;;;;;;;;2.20;99.90;;;;;;5032815;28;20286;-64
2022/12/04 09:54:21;;;;;;;;;;;2.20;99.90;;;;;;5032761;28;20440;-64
2022/12/04 09:56:51;;;;;;;;;;;2.30;99.90;;;;;;5032642;28;20370;-64
2022/12/04 09:59:21;;;;;;;;;;;2.30;99.90;;;;;;5032381;28;19910;-64
2022/12/04 10:02:06;;;;;;;;;;;2.30;99.90;;;;;;5032629;28;20430;-64
2022/12/04 10:04:31;;;;;;;;;;;2.30;99.90;;;;;;5032172;28;20413;-64
2022/12/04 10:07:08;;;;;;;;;;;2.40;99.90;;;;;;5032467;28;19913;-66
2022/12/04 10:09:41;;;;;;;;;;;2.30;99.90;;;;;;5032455;28;20263;-66
2022/12/04 10:12:26;;;;;;;;;;;2.30;99.90;;;;;;5032418;28;19913;-66
2022/12/04 10:17:46;;;;;;;;;;;2.30;99.90;;;;;;5091317;28;19919;-66
2022/12/04 10:20:21;;;;;;;;;;;2.30;99.90;;;;;;5091184;28;20394;-64
2022/12/04 10:23:07;;;;;;;;;;;2.40;99.90;;;;;;5091304;28;20010;-64
2022/12/04 10:25:35;;;;;;;;;;;2.30;99.90;;;;;;5091236;28;20263;-66
2022/12/04 10:28:09;;;;;;;;;;;2.30;99.90;;;;;;5091401;28;19908;-66
2022/12/04 10:30:36;;;;;;;;;;;2.40;99.90;;;;;;5091264;28;19912;-64
2022/12/04 10:33:10;;;;;;;;;;;2.40;99.90;;;;;;5090921;28;19909;-64
2022/12/04 10:35:36;;;;;;;;;;;2.40;99.90;;;;;;5090770;28;19916;-64
2022/12/04 10:38:03;;;;;;;;;;;2.40;99.90;;;;;;5090852;28;19931;-64
2022/12/04 10:40:47;;;;;;;;;;;2.40;99.90;;;;;;5091032;28;20305;-64
2022/12/04 10:43:23;;;;;;;;;;;2.40;99.90;;;;;;5090989;28;19909;-66
2022/12/04 10:45:48;;;;;;;;;;;2.50;99.90;;;;;;5090692;28;20105;-66
2022/12/04 10:48:19;;;;;;;;;;;2.40;99.90;;;;;;5090661;28;20013;-66
2022/12/04 10:50:44;;;;;;;;;;;2.40;99.90;;;;;;5090571;28;19919;-64
2022/12/04 10:53:11;;;;;;;;;;;2.50;99.90;;;;;;5089249;28;19908;-64
2022/12/04 10:55:38;;;;;;;;;;;2.40;99.90;;;;;;5090376;28;20012;-64
2022/12/04 10:58:13;;;;;;;;;;;2.40;99.90;;;;;;5089209;28;20011;-64
2022/12/04 11:00:38;;;;;;;;;;;2.40;99.90;;;;;;5090293;28;19908;-64
2022/12/04 11:03:08;;;;;;;;;;;2.50;99.90;;;;;;5090564;28;19943;-64
2022/12/04 11:05:36;;;;;;;;;;;2.50;99.90;;;;;;5090300;28;19916;-64
2022/12/04 11:08:03;;;;;;;;;;;2.60;99.90;;;;;;5090482;28;20003;-64
2022/12/04 11:10:37;;;;;;;;;;;2.60;99.90;;;;;;5090480;28;19954;-64
2022/12/04 11:13:05;;;;;;;;;;;2.60;99.90;;;;;;5090144;28;19915;-66
2022/12/04 11:15:33;;;;;;;;;;;2.60;99.90;;;;;;5093622;28;19943;-66
2022/12/04 11:18:06;;;;;;;;;;;2.70;99.90;;;;;;5110665;28;20425;-66
2022/12/04 11:20:32;;;;;;;;;;;2.60;99.90;;;;;;5110353;28;19909;-66
2022/12/04 11:22:58;;;;;;;;;;;2.60;99.90;;;;;;5110210;28;20045;-66
2022/12/04 11:25:26;;;;;;;;;;;2.60;99.90;;;;;;5110165;28;19910;-67
2022/12/04 11:27:53;;;;;;;;;;;2.60;99.90;;;;;;5102664;28;19908;-66
2022/12/04 11:30:22;;;;;;;;;;;2.70;99.90;;;;;;5096862;28;19909;-66
2022/12/04 11:32:47;;;;;;;;;;;2.70;99.90;;;;;;5096526;28;19908;-66
2022/12/04 11:35:16;;;;;;;;;;;2.70;99.90;;;;;;5096704;28;19918;-66
2022/12/04 11:37:49;;;;;;;;;;;2.70;99.90;;;;;;5096496;28;20389;-66
2022/12/04 11:40:16;;;;;;;;;;;2.70;99.90;;;;;;5096652;28;20289;-66
2022/12/04 11:42:41;;;;;;;;;;;2.60;99.90;;;;;;5096379;28;19908;-66
2022/12/04 11:45:22;;;;;;;;;;;2.70;99.90;;;;;;5096228;28;19946;-66
2022/12/04 11:48:07;;;;;;;;;;;2.70;99.90;;;;;;5096541;28;20362;-66
2022/12/04 11:50:45;;;;;;;;;;;2.70;99.90;;;;;;5096097;28;19923;-66
2022/12/04 11:53:16;;;;;;;;;;;2.70;99.90;;;;;;5096448;28;19908;-66
2022/12/04 11:55:48;;;;;;;;;;;2.70;99.90;;;;;;5096011;28;20377;-66
2022/12/04 11:58:33;;;;;;;;;;;2.70;99.90;;;;;;5096362;28;20313;-66
2022/12/04 12:01:19;;;;;;;;;;;2.70;99.90;;;;;;5095990;28;20404;-66
2022/12/04 12:04:04;;;;;;;;;;;2.70;99.90;;;;;;5095771;28;20092;-66
2022/12/04 12:06:35;;;;;;;;;;;2.80;99.90;;;;;;5095826;28;19908;-66
2022/12/04 12:09:05;;;;;;;;;;;2.70;99.90;;;;;;5096135;28;19909;-67
2022/12/04 12:11:37;;;;;;;;;;;2.70;99.90;;;;;;5096107;28;19908;-66
2022/12/04 12:14:17;;;;;;;;;;;2.80;99.90;;;;;;5096029;28;19908;-66
2022/12/04 12:17:03;;;;;;;;;;;2.80;99.90;;;;;;5095561;28;19924;-66
2022/12/04 12:19:48;;;;;;;;;;;2.80;99.90;;;;;;5095494;28;19908;-66
2022/12/04 12:25:09;;;;;;;;;;;2.80;99.90;;;;;;5071133;28;19913;-66
2022/12/04 12:30:36;;;;;;;;;;;2.80;99.90;;;;;;5091372;27;19912;-66
2022/12/04 12:33:09;;;;;;;;;;;2.80;99.90;;;;;;5091453;28;20408;-66
2022/12/04 12:35:54;;;;;;;;;;;2.80;99.90;;;;;;5091383;28;20324;-66
2022/12/04 12:38:22;;;;;;;;;;;2.80;99.90;;;;;;5091117;28;20446;-66
2022/12/04 12:40:52;;;;;;;;;;;2.80;99.90;;;;;;5090935;28;19958;-66
2022/12/04 12:43:21;;;;;;;;;;;2.90;99.90;;;;;;5090903;28;19914;-66
2022/12/04 12:45:49;;;;;;;;;;;2.90;99.90;;;;;;5090852;28;20007;-66
2022/12/04 12:48:25;;;;;;;;;;;2.80;99.90;;;;;;5090753;28;19912;-66
2022/12/04 12:50:54;;;;;;;;;;;2.90;99.90;;;;;;5090845;28;19912;-66
2022/12/04 12:53:23;;;;;;;;;;;2.90;99.90;;;;;;5090773;28;19969;-66
2022/12/04 12:55:51;;;;;;;;;;;2.90;99.90;;;;;;5090666;28;19908;-66
2022/12/04 12:58:20;;;;;;;;;;;3.00;99.90;;;;;;5089336;28;19912;-66
2022/12/04 13:00:49;;;;;;;;;;;2.90;99.90;;;;;;5090632;28;20381;-67
2022/12/04 13:03:27;;;;;;;;;;;2.90;99.90;;;;;;5090842;28;19908;-66
2022/12/04 13:05:54;;;;;;;;;;;2.90;99.90;;;;;;5090793;28;19914;-66
2022/12/04 13:08:21;;;;;;;;;;;2.90;99.90;;;;;;5090528;28;19909;-66
2022/12/04 13:10:52;;;;;;;;;;;2.90;99.90;;;;;;5090570;28;19916;-67
2022/12/04 13:13:37;;;;;;;;;;;2.90;99.90;;;;;;5090614;28;20425;-66
2022/12/04 13:16:14;;;;;;;;;;;2.90;99.90;;;;;;5090416;28;20366;-66
2022/12/04 13:18:43;;;;;;;;;;;2.90;99.90;;;;;;5090481;28;19914;-66
2022/12/04 13:21:18;;;;;;;;;;;2.80;99.90;;;;;;5090521;28;20258;-66
2022/12/04 13:24:04;;;;;;;;;;;2.80;99.90;;;;;;5090433;28;19915;-66
2022/12/04 13:26:41;;;;;;;;;;;2.80;99.90;;;;;;5117757;28;19962;-66
2022/12/04 13:31:54;;;;;;;;;;;2.70;99.90;;;;;;5091056;27;19913;-66
2022/12/04 13:34:39;;;;;;;;;;;2.70;99.90;;;;;;5123959;28;19917;-66
2022/12/04 13:40:04;;;;;;;;;;;2.60;99.90;;;;;;5108160;27;1859638;-66
2022/12/04 13:42:30;;;;;;;;;;;2.60;99.90;;;;;;5173375;27;19915;-66
2022/12/04 13:44:58;;;;;;;;;;;2.60;99.90;;;;;;5173629;27;19913;-66
2022/12/04 13:47:25;;;;;;;;;;;2.60;99.90;;;;;;5173631;27;19911;-66
2022/12/04 13:49:51;;;;;;;;;;;2.70;99.90;;;;;;5154807;27;19907;-66
2022/12/04 13:52:35;;;;;;;;;;;2.60;99.90;;;;;;5173609;27;19997;-67
2022/12/04 13:55:00;;;;;;;;;;;2.60;99.90;;;;;;5173251;27;19936;-66
2022/12/04 13:57:27;;;;;;;;;;;2.60;99.90;;;;;;5173124;27;19907;-65
2022/12/04 14:00:12;;;;;;;;;;;2.60;99.90;;;;;;5173441;27;19907;-67
2022/12/04 14:02:42;;;;;;;;;;;2.60;99.90;;;;;;5173110;27;20036;-67
2022/12/04 14:05:10;;;;;;;;;;;2.60;99.90;;;;;;5173089;27;20283;-66
2022/12/04 14:07:36;;;;;;;;;;;2.60;99.90;;;;;;5173278;27;19930;-66
2022/12/04 14:10:04;;;;;;;;;;;2.60;99.90;;;;;;5154121;27;19914;-66
2022/12/04 14:12:34;;;;;;;;;;;2.60;99.90;;;;;;5172741;27;19911;-66
2022/12/04 14:15:03;;;;;;;;;;;2.50;99.90;;;;;;5172952;27;19914;-66
2022/12/04 14:17:33;;;;;;;;;;;2.60;99.90;;;;;;5172999;27;19946;-64
2022/12/04 14:20:01;;;;;;;;;;;2.60;99.90;;;;;;5172915;27;20375;-66
2022/12/04 14:25:13;;;;;;;;;;;2.50;99.90;;;;;;5108597;27;1847690;-66
2022/12/04 14:27:42;;;;;;;;;;;2.50;99.90;;;;;;5173519;27;19918;-66
2022/12/04 14:30:16;;;;;;;;;;;2.50;99.90;;;;;;5173712;27;19907;-66
2022/12/04 14:32:42;;;;;;;;;;;2.50;99.90;;;;;;5173392;27;19907;-64
2022/12/04 14:35:12;;;;;;;;;;;2.50;99.90;;;;;;5173460;27;19907;-66
2022/12/04 14:37:42;;;;;;;;;;;2.60;99.90;;;;;;5173070;27;19960;-65
2022/12/04 14:40:16;;;;;;;;;;;2.60;99.90;;;;;;5173166;27;19907;-65
2022/12/04 14:42:41;;;;;;;;;;;2.50;99.90;;;;;;5173254;27;19953;-66
2022/12/04 14:45:27;;;;;;;;;;;2.60;99.90;;;;;;5173426;27;19911;-66
2022/12/04 14:47:58;;;;;;;;;;;2.60;99.90;;;;;;5172983;27;20317;-66
2022/12/04 14:50:29;;;;;;;;;;;2.60;99.90;;;;;;5173056;27;20395;-66
2022/12/04 14:53:14;;;;;;;;;;;2.60;99.90;;;;;;5172982;27;19911;-66
2022/12/04 14:55:49;;;;;;;;;;;2.60;99.90;;;;;;5172930;27;19907;-66
2022/12/04 14:58:49;;;;;;;;;;;2.70;99.90;;;;;;5172962;27;19907;-66
2022/12/04 15:01:06;;;;;;;;;;;2.60;99.90;;;;;;5172786;27;19907;-66
2022/12/04 15:03:39;;;;;;;;;;;2.70;99.90;;;;;;5173072;27;20261;-66
2022/12/04 15:06:07;;;;;;;;;;;2.60;99.90;;;;;;5173064;27;19913;-67
2022/12/04 15:08:32;;;;;;;;;;;2.60;99.90;;;;;;5173006;27;19907;-66
2022/12/04 15:13:43;;;;;;;;;;;2.60;99.90;;;;;;5172381;27;19907;-66